sensor_id;sensor_type;location;lat;lon;timestamp;P1;durP1;ratioP1;P2;durP2;ratioP2
22673;SDS011;11504;43.334;21.918;2023-02-24T00:00:48;16.0;;;15.0;;
22673;SDS011;11504;43.334;21.918;2023-02-24T00:05:24;17.0;;;16.0;;
22673;SDS011;11504;43.334;21.918;2023-02-24T00:10:01;17.0;;;16.0;;
22673;SDS011;11504;43.334;21.918;2023-02-24T00:14:40;18.0;;;17.0;;
22673;SDS011;11504;43.334;21.918;2023-02-24T00:19:23;18.0;;;17.0;;
22673;SDS011;11504;43.334;21.918;2023-02-24T00:24:07;20.0;;;19.0;;
22673;SDS011;11504;43.334;21.918;2023-02-24T00:28:47;20.0;;;19.0;;
22673;SDS011;11504;43.334;21.918;2023-02-24T00:33:23;22.0;;;21.0;;
22673;SDS011;11504;43.334;21.918;2023-02-24T00:38:00;22.0;;;21.0;;
22673;SDS011;11504;43.334;21.918;2023-02-24T00:42:36;28.0;;;26.0;;
22673;SDS011;11504;43.334;21.918;2023-02-24T00:47:15;28.0;;;26.0;;
22673;SDS011;11504;43.334;21.918;2023-02-24T00:51:53;33.0;;;30.0;;
22673;SDS011;11504;43.334;21.918;2023-02-24T00:56:31;33.0;;;30.0;;
22673;SDS011;11504;43.334;21.918;2023-02-24T01:01:12;42.0;;;38.0;;
22673;SDS011;11504;43.334;21.918;2023-02-24T01:05:55;42.0;;;38.0;;
22673;SDS011;11504;43.334;21.918;2023-02-24T01:10:35;42.0;;;38.0;;
22673;SDS011;11504;43.334;21.918;2023-02-24T01:15:12;51.0;;;45.0;;
22673;SDS011;11504;43.334;21.918;2023-02-24T01:19:51;51.0;;;45.0;;
22673;SDS011;11504;43.334;21.918;2023-02-24T01:24:33;42.0;;;38.0;;
22673;SDS011;11504;43.334;21.918;2023-02-24T01:29:20;42.0;;;38.0;;
22673;SDS011;11504;43.334;21.918;2023-02-24T01:33:58;34.0;;;32.0;;
22673;SDS011;11504;43.334;21.918;2023-02-24T01:38:35;34.0;;;32.0;;
22673;SDS011;11504;43.334;21.918;2023-02-24T01:43:13;35.0;;;32.0;;
22673;SDS011;11504;43.334;21.918;2023-02-24T01:47:55;35.0;;;32.0;;
22673;SDS011;11504;43.334;21.918;2023-02-24T01:52:50;36.0;;;31.0;;
22673;SDS011;11504;43.334;21.918;2023-02-24T01:57:43;36.0;;;31.0;;
22673;SDS011;11504;43.334;21.918;2023-02-24T02:02:23;34.0;;;31.0;;
22673;SDS011;11504;43.334;21.918;2023-02-24T02:07:01;34.0;;;31.0;;
22673;SDS011;11504;43.334;21.918;2023-02-24T02:11:41;32.0;;;31.0;;
22673;SDS011;11504;43.334;21.918;2023-02-24T02:16:41;32.0;;;31.0;;
22673;SDS011;11504;43.334;21.918;2023-02-24T02:22:27;34.0;;;31.0;;
22673;SDS011;11504;43.334;21.918;2023-02-24T02:28:49;34.0;;;31.0;;
22673;SDS011;11504;43.334;21.918;2023-02-24T02:34:31;36.0;;;31.0;;
22673;SDS011;11504;43.334;21.918;2023-02-24T02:39:44;36.0;;;31.0;;
22673;SDS011;11504;43.334;21.918;2023-02-24T02:44:49;38.0;;;34.0;;
22673;SDS011;11504;43.334;21.918;2023-02-24T02:49:53;38.0;;;34.0;;
22673;SDS011;11504;43.334;21.918;2023-02-24T02:55:02;39.0;;;37.0;;
22673;SDS011;11504;43.334;21.918;2023-02-24T03:00:07;39.0;;;37.0;;
22673;SDS011;11504;43.334;21.918;2023-02-24T03:05:02;38.0;;;34.0;;
22673;SDS011;11504;43.334;21.918;2023-02-24T03:09:58;38.0;;;34.0;;
22673;SDS011;11504;43.334;21.918;2023-02-24T03:14:57;36.0;;;31.0;;
22673;SDS011;11504;43.334;21.918;2023-02-24T03:19:51;36.0;;;31.0;;
22673;SDS011;11504;43.334;21.918;2023-02-24T03:24:56;36.0;;;32.0;;
22673;SDS011;11504;43.334;21.918;2023-02-24T03:29:40;36.0;;;32.0;;
22673;SDS011;11504;43.334;21.918;2023-02-24T03:34:45;35.0;;;33.0;;
22673;SDS011;11504;43.334;21.918;2023-02-24T03:39:35;35.0;;;33.0;;
22673;SDS011;11504;43.334;21.918;2023-02-24T03:44:11;35.0;;;33.0;;
22673;SDS011;11504;43.334;21.918;2023-02-24T03:48:53;35.0;;;33.0;;
22673;SDS011;11504;43.334;21.918;2023-02-24T03:54:01;35.0;;;33.0;;
22673;SDS011;11504;43.334;21.918;2023-02-24T03:59:28;35.0;;;33.0;;
22673;SDS011;11504;43.334;21.918;2023-02-24T04:04:45;34.0;;;32.0;;
22673;SDS011;11504;43.334;21.918;2023-02-24T04:10:05;34.0;;;32.0;;
22673;SDS011;11504;43.334;21.918;2023-02-24T04:15:19;33.0;;;32.0;;
22673;SDS011;11504;43.334;21.918;2023-02-24T04:20:28;33.0;;;32.0;;
22673;SDS011;11504;43.334;21.918;2023-02-24T04:25:21;32.0;;;30.0;;
22673;SDS011;11504;43.334;21.918;2023-02-24T04:30:10;32.0;;;30.0;;
22673;SDS011;11504;43.334;21.918;2023-02-24T04:34:50;32.0;;;29.0;;
22673;SDS011;11504;43.334;21.918;2023-02-24T04:39:29;32.0;;;29.0;;
22673;SDS011;11504;43.334;21.918;2023-02-24T04:44:07;30.0;;;28.0;;
22673;SDS011;11504;43.334;21.918;2023-02-24T04:48:44;30.0;;;28.0;;
22673;SDS011;11504;43.334;21.918;2023-02-24T04:53:21;27.0;;;26.0;;
22673;SDS011;11504;43.334;21.918;2023-02-24T04:57:58;27.0;;;26.0;;
22673;SDS011;11504;43.334;21.918;2023-02-24T05:02:36;28.0;;;25.0;;
22673;SDS011;11504;43.334;21.918;2023-02-24T05:07:12;28.0;;;25.0;;
22673;SDS011;11504;43.334;21.918;2023-02-24T05:11:50;28.0;;;24.0;;
22673;SDS011;11504;43.334;21.918;2023-02-24T05:16:27;28.0;;;24.0;;
22673;SDS011;11504;43.334;21.918;2023-02-24T05:21:07;28.0;;;24.0;;
22673;SDS011;11504;43.334;21.918;2023-02-24T05:25:49;32.0;;;26.0;;
22673;SDS011;11504;43.334;21.918;2023-02-24T05:30:26;32.0;;;26.0;;
22673;SDS011;11504;43.334;21.918;2023-02-24T05:35:03;35.0;;;28.0;;
22673;SDS011;11504;43.334;21.918;2023-02-24T05:39:43;35.0;;;28.0;;
22673;SDS011;11504;43.334;21.918;2023-02-24T05:44:22;37.0;;;32.0;;
22673;SDS011;11504;43.334;21.918;2023-02-24T05:49:05;37.0;;;32.0;;
22673;SDS011;11504;43.334;21.918;2023-02-24T05:53:52;39.0;;;36.0;;
22673;SDS011;11504;43.334;21.918;2023-02-24T05:58:29;39.0;;;36.0;;
22673;SDS011;11504;43.334;21.918;2023-02-24T06:03:06;46.0;;;41.0;;
22673;SDS011;11504;43.334;21.918;2023-02-24T06:07:43;46.0;;;41.0;;
22673;SDS011;11504;43.334;21.918;2023-02-24T06:12:21;54.0;;;46.0;;
22673;SDS011;11504;43.334;21.918;2023-02-24T06:17:05;54.0;;;46.0;;
22673;SDS011;11504;43.334;21.918;2023-02-24T06:21:42;54.0;;;46.0;;
22673;SDS011;11504;43.334;21.918;2023-02-24T06:26:19;54.0;;;46.0;;
22673;SDS011;11504;43.334;21.918;2023-02-24T06:30:55;54.0;;;46.0;;
22673;SDS011;11504;43.334;21.918;2023-02-24T06:35:31;54.0;;;46.0;;
22673;SDS011;11504;43.334;21.918;2023-02-24T06:40:09;54.0;;;46.0;;
22673;SDS011;11504;43.334;21.918;2023-02-24T06:44:47;52.0;;;46.0;;
22673;SDS011;11504;43.334;21.918;2023-02-24T06:49:25;52.0;;;46.0;;
22673;SDS011;11504;43.334;21.918;2023-02-24T06:54:04;51.0;;;47.0;;
22673;SDS011;11504;43.334;21.918;2023-02-24T06:58:42;51.0;;;47.0;;
22673;SDS011;11504;43.334;21.918;2023-02-24T07:03:30;52.0;;;48.0;;
22673;SDS011;11504;43.334;21.918;2023-02-24T07:08:07;52.0;;;48.0;;
22673;SDS011;11504;43.334;21.918;2023-02-24T07:12:44;54.0;;;49.0;;
22673;SDS011;11504;43.334;21.918;2023-02-24T07:17:21;54.0;;;49.0;;
22673;SDS011;11504;43.334;21.918;2023-02-24T07:22:01;50.0;;;46.0;;
22673;SDS011;11504;43.334;21.918;2023-02-24T07:26:40;50.0;;;46.0;;
22673;SDS011;11504;43.334;21.918;2023-02-24T07:31:20;50.0;;;46.0;;
22673;SDS011;11504;43.334;21.918;2023-02-24T07:36:00;45.0;;;42.0;;
22673;SDS011;11504;43.334;21.918;2023-02-24T07:40:40;45.0;;;42.0;;
22673;SDS011;11504;43.334;21.918;2023-02-24T07:45:17;49.0;;;44.0;;
22673;SDS011;11504;43.334;21.918;2023-02-24T07:49:54;49.0;;;44.0;;
22673;SDS011;11504;43.334;21.918;2023-02-24T07:54:31;53.0;;;47.0;;
22673;SDS011;11504;43.334;21.918;2023-02-24T07:59:07;53.0;;;47.0;;
22673;SDS011;11504;43.334;21.918;2023-02-24T08:03:44;58.0;;;54.0;;
22673;SDS011;11504;43.334;21.918;2023-02-24T08:08:20;58.0;;;54.0;;
22673;SDS011;11504;43.334;21.918;2023-02-24T08:12:57;64.0;;;60.0;;
22673;SDS011;11504;43.334;21.918;2023-02-24T08:17:34;64.0;;;60.0;;
22673;SDS011;11504;43.334;21.918;2023-02-24T08:22:11;58.0;;;54.0;;
22673;SDS011;11504;43.334;21.918;2023-02-24T08:26:53;58.0;;;54.0;;
22673;SDS011;11504;43.334;21.918;2023-02-24T08:31:32;58.0;;;54.0;;
22673;SDS011;11504;43.334;21.918;2023-02-24T08:36:08;51.0;;;47.0;;
22673;SDS011;11504;43.334;21.918;2023-02-24T08:40:49;51.0;;;47.0;;
22673;SDS011;11504;43.334;21.918;2023-02-24T08:45:32;45.0;;;42.0;;
22673;SDS011;11504;43.334;21.918;2023-02-24T08:50:09;45.0;;;42.0;;
22673;SDS011;11504;43.334;21.918;2023-02-24T08:54:46;39.0;;;37.0;;
22673;SDS011;11504;43.334;21.918;2023-02-24T08:59:26;39.0;;;37.0;;
22673;SDS011;11504;43.334;21.918;2023-02-24T09:04:06;42.0;;;40.0;;
22673;SDS011;11504;43.334;21.918;2023-02-24T09:08:47;42.0;;;40.0;;
22673;SDS011;11504;43.334;21.918;2023-02-24T09:13:24;45.0;;;42.0;;
22673;SDS011;11504;43.334;21.918;2023-02-24T09:18:00;45.0;;;42.0;;
22673;SDS011;11504;43.334;21.918;2023-02-24T09:22:37;46.0;;;44.0;;
22673;SDS011;11504;43.334;21.918;2023-02-24T09:27:13;46.0;;;44.0;;
22673;SDS011;11504;43.334;21.918;2023-02-24T09:31:50;47.0;;;45.0;;
22673;SDS011;11504;43.334;21.918;2023-02-24T09:36:26;47.0;;;45.0;;
22673;SDS011;11504;43.334;21.918;2023-02-24T09:41:20;47.0;;;45.0;;
22673;SDS011;11504;43.334;21.918;2023-02-24T09:46:15;44.0;;;42.0;;
22673;SDS011;11504;43.334;21.918;2023-02-24T09:50:52;44.0;;;42.0;;
22673;SDS011;11504;43.334;21.918;2023-02-24T09:55:37;40.0;;;38.0;;
22673;SDS011;11504;43.334;21.918;2023-02-24T10:00:48;40.0;;;38.0;;
22673;SDS011;11504;43.334;21.918;2023-02-24T10:06:15;38.0;;;34.0;;
22673;SDS011;11504;43.334;21.918;2023-02-24T10:11:04;38.0;;;34.0;;
22673;SDS011;11504;43.334;21.918;2023-02-24T10:15:49;35.0;;;31.0;;
22673;SDS011;11504;43.334;21.918;2023-02-24T10:20:33;35.0;;;31.0;;
22673;SDS011;11504;43.334;21.918;2023-02-24T10:25:33;36.0;;;33.0;;
22673;SDS011;11504;43.334;21.918;2023-02-24T10:30:42;36.0;;;33.0;;
22673;SDS011;11504;43.334;21.918;2023-02-24T10:35:46;37.0;;;35.0;;
22673;SDS011;11504;43.334;21.918;2023-02-24T10:40:22;37.0;;;35.0;;
22673;SDS011;11504;43.334;21.918;2023-02-24T10:45:15;35.0;;;33.0;;
22673;SDS011;11504;43.334;21.918;2023-02-24T10:50:04;35.0;;;33.0;;
22673;SDS011;11504;43.334;21.918;2023-02-24T10:54:57;33.0;;;31.0;;
22673;SDS011;11504;43.334;21.918;2023-02-24T10:59:47;33.0;;;31.0;;
22673;SDS011;11504;43.334;21.918;2023-02-24T11:04:36;32.0;;;30.0;;
22673;SDS011;11504;43.334;21.918;2023-02-24T11:09:17;32.0;;;30.0;;
22673;SDS011;11504;43.334;21.918;2023-02-24T11:14:02;32.0;;;30.0;;
22673;SDS011;11504;43.334;21.918;2023-02-24T11:18:46;32.0;;;30.0;;
22673;SDS011;11504;43.334;21.918;2023-02-24T11:23:28;34.0;;;30.0;;
22673;SDS011;11504;43.334;21.918;2023-02-24T11:28:37;34.0;;;30.0;;
22673;SDS011;11504;43.334;21.918;2023-02-24T11:34:08;35.0;;;30.0;;
22673;SDS011;11504;43.334;21.918;2023-02-24T11:39:27;35.0;;;30.0;;
22673;SDS011;11504;43.334;21.918;2023-02-24T11:44:35;31.0;;;26.0;;
22673;SDS011;11504;43.334;21.918;2023-02-24T11:49:39;31.0;;;26.0;;
22673;SDS011;11504;43.334;21.918;2023-02-24T11:54:33;27.0;;;23.0;;
22673;SDS011;11504;43.334;21.918;2023-02-24T11:59:30;27.0;;;23.0;;
22673;SDS011;11504;43.334;21.918;2023-02-24T12:04:26;23.0;;;20.0;;
22673;SDS011;11504;43.334;21.918;2023-02-24T12:09:20;23.0;;;20.0;;
22673;SDS011;11504;43.334;21.918;2023-02-24T12:14:24;19.0;;;16.0;;
22673;SDS011;11504;43.334;21.918;2023-02-24T12:19:31;19.0;;;16.0;;
22673;SDS011;11504;43.334;21.918;2023-02-24T12:24:39;20.0;;;17.0;;
22673;SDS011;11504;43.334;21.918;2023-02-24T12:29:47;20.0;;;17.0;;
22673;SDS011;11504;43.334;21.918;2023-02-24T12:35:37;20.0;;;18.0;;
22673;SDS011;11504;43.334;21.918;2023-02-24T12:41:18;20.0;;;18.0;;
22673;SDS011;11504;43.334;21.918;2023-02-24T12:47:02;20.0;;;16.0;;
22673;SDS011;11504;43.334;21.918;2023-02-24T12:52:19;19.0;;;14.0;;
22673;SDS011;11504;43.334;21.918;2023-02-24T12:57:46;19.0;;;14.0;;
22673;SDS011;11504;43.334;21.918;2023-02-24T13:02:58;16.0;;;12.0;;
22673;SDS011;11504;43.334;21.918;2023-02-24T13:08:37;16.0;;;12.0;;
22673;SDS011;11504;43.334;21.918;2023-02-24T13:13:42;12.0;;;11.0;;
22673;SDS011;11504;43.334;21.918;2023-02-24T13:18:39;12.0;;;11.0;;
22673;SDS011;11504;43.334;21.918;2023-02-24T13:23:20;14.0;;;12.0;;
22673;SDS011;11504;43.334;21.918;2023-02-24T13:28:01;14.0;;;12.0;;
22673;SDS011;11504;43.334;21.918;2023-02-24T13:33:20;15.0;;;12.0;;
22673;SDS011;11504;43.334;21.918;2023-02-24T13:38:24;15.0;;;12.0;;
22673;SDS011;11504;43.334;21.918;2023-02-24T13:43:25;14.0;;;12.0;;
22673;SDS011;11504;43.334;21.918;2023-02-24T13:48:47;14.0;;;12.0;;
22673;SDS011;11504;43.334;21.918;2023-02-24T13:54:39;12.0;;;11.0;;
22673;SDS011;11504;43.334;21.918;2023-02-24T14:00:26;12.0;;;11.0;;
22673;SDS011;11504;43.334;21.918;2023-02-24T14:05:43;14.0;;;13.0;;
22673;SDS011;11504;43.334;21.918;2023-02-24T14:10:25;14.0;;;13.0;;
22673;SDS011;11504;43.334;21.918;2023-02-24T14:15:14;16.0;;;15.0;;
22673;SDS011;11504;43.334;21.918;2023-02-24T14:20:19;16.0;;;15.0;;
22673;SDS011;11504;43.334;21.918;2023-02-24T14:25:01;16.0;;;15.0;;
22673;SDS011;11504;43.334;21.918;2023-02-24T14:29:41;16.0;;;15.0;;
22673;SDS011;11504;43.334;21.918;2023-02-24T14:34:23;16.0;;;15.0;;
22673;SDS011;11504;43.334;21.918;2023-02-24T14:39:14;16.0;;;15.0;;
22673;SDS011;11504;43.334;21.918;2023-02-24T14:44:07;16.0;;;13.0;;
22673;SDS011;11504;43.334;21.918;2023-02-24T14:48:59;16.0;;;13.0;;
22673;SDS011;11504;43.334;21.918;2023-02-24T14:53:40;16.0;;;11.0;;
22673;SDS011;11504;43.334;21.918;2023-02-24T14:58:44;16.0;;;11.0;;
22673;SDS011;11504;43.334;21.918;2023-02-24T15:03:52;15.0;;;12.0;;
22673;SDS011;11504;43.334;21.918;2023-02-24T15:09:15;15.0;;;12.0;;
22673;SDS011;11504;43.334;21.918;2023-02-24T15:14:21;14.0;;;13.0;;
22673;SDS011;11504;43.334;21.918;2023-02-24T15:19:24;14.0;;;13.0;;
22673;SDS011;11504;43.334;21.918;2023-02-24T15:24:17;16.0;;;15.0;;
22673;SDS011;11504;43.334;21.918;2023-02-24T15:29:13;16.0;;;15.0;;
22673;SDS011;11504;43.334;21.918;2023-02-24T15:34:17;19.0;;;17.0;;
22673;SDS011;11504;43.334;21.918;2023-02-24T15:39:18;19.0;;;17.0;;
22673;SDS011;11504;43.334;21.918;2023-02-24T15:44:24;22.0;;;20.0;;
22673;SDS011;11504;43.334;21.918;2023-02-24T15:49:09;22.0;;;20.0;;
22673;SDS011;11504;43.334;21.918;2023-02-24T15:53:45;25.0;;;24.0;;
22673;SDS011;11504;43.334;21.918;2023-02-24T15:58:23;25.0;;;24.0;;
22673;SDS011;11504;43.334;21.918;2023-02-24T16:03:00;27.0;;;26.0;;
22673;SDS011;11504;43.334;21.918;2023-02-24T16:07:37;27.0;;;26.0;;
22673;SDS011;11504;43.334;21.918;2023-02-24T16:12:22;29.0;;;27.0;;
22673;SDS011;11504;43.334;21.918;2023-02-24T16:17:23;29.0;;;27.0;;
22673;SDS011;11504;43.334;21.918;2023-02-24T16:22:14;46.0;;;42.0;;
22673;SDS011;11504;43.334;21.918;2023-02-24T16:26:51;46.0;;;42.0;;
22673;SDS011;11504;43.334;21.918;2023-02-24T16:31:27;46.0;;;42.0;;
22673;SDS011;11504;43.334;21.918;2023-02-24T16:36:09;63.0;;;57.0;;
22673;SDS011;11504;43.334;21.918;2023-02-24T16:40:49;63.0;;;57.0;;
22673;SDS011;11504;43.334;21.918;2023-02-24T16:45:27;72.0;;;68.0;;
22673;SDS011;11504;43.334;21.918;2023-02-24T16:50:08;72.0;;;68.0;;
22673;SDS011;11504;43.334;21.918;2023-02-24T16:54:57;82.0;;;78.0;;
22673;SDS011;11504;43.334;21.918;2023-02-24T16:59:34;82.0;;;78.0;;
22673;SDS011;11504;43.334;21.918;2023-02-24T17:04:10;102.0;;;88.0;;
22673;SDS011;11504;43.334;21.918;2023-02-24T17:08:47;102.0;;;88.0;;
22673;SDS011;11504;43.334;21.918;2023-02-24T17:13:24;121.0;;;99.0;;
22673;SDS011;11504;43.334;21.918;2023-02-24T17:18:00;121.0;;;99.0;;
22673;SDS011;11504;43.334;21.918;2023-02-24T17:22:36;104.0;;;89.0;;
22673;SDS011;11504;43.334;21.918;2023-02-24T17:27:13;104.0;;;89.0;;
22673;SDS011;11504;43.334;21.918;2023-02-24T17:31:50;104.0;;;89.0;;
22673;SDS011;11504;43.334;21.918;2023-02-24T17:36:26;86.0;;;79.0;;
22673;SDS011;11504;43.334;21.918;2023-02-24T17:41:04;86.0;;;79.0;;
22673;SDS011;11504;43.334;21.918;2023-02-24T17:45:43;102.0;;;92.0;;
22673;SDS011;11504;43.334;21.918;2023-02-24T17:50:22;102.0;;;92.0;;
22673;SDS011;11504;43.334;21.918;2023-02-24T17:54:59;118.0;;;106.0;;
22673;SDS011;11504;43.334;21.918;2023-02-24T17:59:36;118.0;;;106.0;;
22673;SDS011;11504;43.334;21.918;2023-02-24T18:04:13;118.0;;;106.0;;
22673;SDS011;11504;43.334;21.918;2023-02-24T18:08:50;118.0;;;106.0;;
22673;SDS011;11504;43.334;21.918;2023-02-24T18:13:28;121.0;;;115.0;;
22673;SDS011;11504;43.334;21.918;2023-02-24T18:18:09;121.0;;;115.0;;
22673;SDS011;11504;43.334;21.918;2023-02-24T18:22:45;121.0;;;115.0;;
22673;SDS011;11504;43.334;21.918;2023-02-24T18:27:22;121.0;;;115.0;;
22673;SDS011;11504;43.334;21.918;2023-02-24T18:31:59;121.0;;;115.0;;
22673;SDS011;11504;43.334;21.918;2023-02-24T18:36:35;121.0;;;115.0;;
22673;SDS011;11504;43.334;21.918;2023-02-24T18:41:16;121.0;;;115.0;;
22673;SDS011;11504;43.334;21.918;2023-02-24T18:55:19;72.0;;;66.0;;
22673;SDS011;11504;43.334;21.918;2023-02-24T18:59:55;72.0;;;66.0;;
22673;SDS011;11504;43.334;21.918;2023-02-24T19:04:32;72.0;;;66.0;;
22673;SDS011;11504;43.334;21.918;2023-02-24T19:09:10;72.0;;;66.0;;
22673;SDS011;11504;43.334;21.918;2023-02-24T19:13:47;72.0;;;66.0;;
22673;SDS011;11504;43.334;21.918;2023-02-24T19:18:24;72.0;;;66.0;;
22673;SDS011;11504;43.334;21.918;2023-02-24T21:14:01;70.0;;;65.0;;
22673;SDS011;11504;43.334;21.918;2023-02-24T21:18:44;70.0;;;65.0;;
22673;SDS011;11504;43.334;21.918;2023-02-24T21:23:22;70.0;;;65.0;;
22673;SDS011;11504;43.334;21.918;2023-02-24T21:27:58;70.0;;;65.0;;
22673;SDS011;11504;43.334;21.918;2023-02-24T21:32:35;70.0;;;65.0;;
22673;SDS011;11504;43.334;21.918;2023-02-24T21:37:12;70.0;;;65.0;;
22673;SDS011;11504;43.334;21.918;2023-02-24T21:41:48;70.0;;;65.0;;
22673;SDS011;11504;43.334;21.918;2023-02-24T22:46:37;24.0;;;21.0;;
22673;SDS011;11504;43.334;21.918;2023-02-24T22:51:15;24.0;;;21.0;;
22673;SDS011;11504;43.334;21.918;2023-02-24T22:55:53;24.0;;;21.0;;
22673;SDS011;11504;43.334;21.918;2023-02-24T23:00:30;24.0;;;21.0;;
22673;SDS011;11504;43.334;21.918;2023-02-24T23:05:07;24.0;;;21.0;;
22673;SDS011;11504;43.334;21.918;2023-02-24T23:09:44;24.0;;;21.0;;
22673;SDS011;11504;43.334;21.918;2023-02-24T23:14:21;21.0;;;18.0;;
22673;SDS011;11504;43.334;21.918;2023-02-24T23:19:07;21.0;;;18.0;;
22673;SDS011;11504;43.334;21.918;2023-02-24T23:23:54;21.0;;;18.0;;
22673;SDS011;11504;43.334;21.918;2023-02-24T23:28:32;21.0;;;18.0;;
22673;SDS011;11504;43.334;21.918;2023-02-24T23:33:09;21.0;;;18.0;;
22673;SDS011;11504;43.334;21.918;2023-02-24T23:37:46;21.0;;;18.0;;
22673;SDS011;11504;43.334;21.918;2023-02-24T23:42:22;21.0;;;18.0;;
